Time;durP1;ratioP1;P1;durP2;ratioP2;P2;SDS_P1;SDS_P2;PMS_P1;PMS_P2;Temp;Humidity;BMP_temperature;BMP_pressure;BME280_temperature;BME280_humidity;BME280_pressure;Samples;Min_cycle;Max_cycle;Signal;HPM_P1;HPM_P2
2022/04/18 00:00:03;;;;;;;1.40;1.10;;;11.40;62.90;;;;;;5035727;28;20451;-79
2022/04/18 00:02:30;;;;;;;1.40;1.00;;;11.40;63.20;;;;;;5036976;28;20558;-77
2022/04/18 00:04:57;;;;;;;2.17;1.97;;;11.30;63.50;;;;;;5036824;28;20995;-78
2022/04/18 00:07:23;;;;;;;1.50;1.10;;;11.30;63.60;;;;;;5039486;28;20463;-76
2022/04/18 00:09:50;;;;;;;1.40;1.10;;;11.20;63.80;;;;;;5036703;28;20469;-77
2022/04/18 00:12:17;;;;;;;1.40;1.10;;;11.20;63.80;;;;;;5038084;28;20455;-78
2022/04/18 00:14:46;;;;;;;1.40;1.10;;;11.20;64.10;;;;;;5018652;28;20487;-80
2022/04/18 00:17:12;;;;;;;1.47;1.10;;;11.10;64.50;;;;;;5036932;28;20779;-76
2022/04/18 00:19:39;;;;;;;1.43;1.10;;;11.10;64.70;;;;;;5030299;28;20600;-79
2022/04/18 00:22:07;;;;;;;1.40;1.00;;;11.00;64.80;;;;;;5035302;28;20475;-79
2022/04/18 00:24:35;;;;;;;1.47;1.07;;;11.00;65.10;;;;;;5035897;28;20507;-78
2022/04/18 00:27:01;;;;;;;1.43;1.10;;;11.00;65.20;;;;;;5036690;28;20463;-80
2022/04/18 00:29:28;;;;;;;1.53;1.43;;;10.90;65.40;;;;;;5036403;28;20475;-76
2022/04/18 00:31:57;;;;;;;1.40;1.10;;;10.90;65.70;;;;;;5041307;28;20459;-80
2022/04/18 00:34:24;;;;;;;1.50;1.20;;;10.80;65.70;;;;;;5036236;28;21160;-79
2022/04/18 00:36:50;;;;;;;1.50;1.10;;;10.80;66.00;;;;;;5040851;28;20474;-78
2022/04/18 00:39:17;;;;;;;1.47;1.10;;;10.70;66.10;;;;;;5037162;28;20535;-79
2022/04/18 00:41:44;;;;;;;1.40;1.07;;;10.70;66.10;;;;;;5038668;28;20493;-79
2022/04/18 00:44:12;;;;;;;1.47;1.10;;;10.70;66.20;;;;;;5037453;28;20487;-81
2022/04/18 00:46:39;;;;;;;1.40;1.00;;;10.60;66.00;;;;;;5026814;28;20521;-77
2022/04/18 00:49:07;;;;;;;1.50;1.20;;;10.60;66.00;;;;;;5028441;28;20463;-80
2022/04/18 00:51:35;;;;;;;1.47;1.10;;;10.60;66.00;;;;;;5034143;28;20470;-76
2022/04/18 00:54:04;;;;;;;1.47;1.10;;;10.60;65.50;;;;;;5036675;28;20495;-80
2022/04/18 00:56:32;;;;;;;1.43;1.10;;;10.50;66.00;;;;;;5035660;28;20771;-78
2022/04/18 00:58:59;;;;;;;1.43;1.10;;;10.50;65.90;;;;;;5033905;28;20503;-76
2022/04/18 01:01:26;;;;;;;1.43;1.10;;;10.50;65.80;;;;;;5032590;28;20474;-80
2022/04/18 01:03:53;;;;;;;1.43;1.10;;;10.50;65.90;;;;;;5033562;28;20921;-80
2022/04/18 01:06:22;;;;;;;1.50;1.20;;;10.50;66.00;;;;;;5030456;28;20455;-77
2022/04/18 01:08:50;;;;;;;1.43;1.10;;;10.50;66.10;;;;;;5038512;28;21065;-78
2022/04/18 01:11:18;;;;;;;1.40;1.10;;;10.50;66.00;;;;;;5038340;28;20474;-79
2022/04/18 01:13:47;;;;;;;1.47;1.10;;;10.40;66.10;;;;;;5038182;28;20487;-77
2022/04/18 01:16:15;;;;;;;1.43;1.10;;;10.40;65.90;;;;;;5033448;28;20463;-77
2022/04/18 01:18:45;;;;;;;1.47;1.10;;;10.40;66.20;;;;;;5038558;28;20459;-79
2022/04/18 01:21:17;;;;;;;1.47;1.20;;;10.40;66.30;;;;;;5037108;28;20496;-78
2022/04/18 01:23:43;;;;;;;1.50;1.20;;;10.40;66.40;;;;;;5036371;28;20479;-80
2022/04/18 01:29:02;;;;;;;1.50;1.20;;;10.30;66.70;;;;;;5039646;28;20469;-79
2022/04/18 01:31:31;;;;;;;1.43;1.20;;;10.30;66.70;;;;;;5032260;28;20553;-77
2022/04/18 01:33:58;;;;;;;1.50;1.20;;;10.20;67.00;;;;;;5036586;28;20494;-77
2022/04/18 01:36:28;;;;;;;1.50;1.10;;;10.20;67.10;;;;;;5041310;28;20462;-76
2022/04/18 01:38:55;;;;;;;1.43;1.10;;;10.20;67.30;;;;;;5036578;28;20463;-78
2022/04/18 01:41:23;;;;;;;1.47;1.10;;;10.10;67.30;;;;;;5030282;28;20478;-76
2022/04/18 01:43:51;;;;;;;1.50;1.10;;;10.10;67.40;;;;;;5038317;28;20479;-77
2022/04/18 01:46:19;;;;;;;1.47;1.10;;;10.10;67.30;;;;;;5044999;28;20480;-80
2022/04/18 01:48:51;;;;;;;1.47;1.20;;;10.10;67.10;;;;;;5038120;28;20542;-80
2022/04/18 01:51:18;;;;;;;1.47;1.10;;;10.10;67.10;;;;;;5034543;28;20464;-79
2022/04/18 01:53:47;;;;;;;1.40;1.10;;;10.00;67.50;;;;;;5038465;28;20513;-78
2022/04/18 01:56:14;;;;;;;1.47;1.10;;;10.00;67.50;;;;;;5039696;28;20465;-79
2022/04/18 01:58:41;;;;;;;1.47;1.10;;;10.00;67.40;;;;;;5037600;28;20459;-79
2022/04/18 02:01:08;;;;;;;1.50;1.17;;;10.00;67.70;;;;;;5036851;28;20467;-78
2022/04/18 02:03:35;;;;;;;1.90;1.80;;;10.00;67.70;;;;;;5038746;28;20529;-76
2022/04/18 02:06:02;;;;;;;1.50;1.10;;;9.90;67.60;;;;;;5038735;28;20571;-79
2022/04/18 02:08:29;;;;;;;1.50;1.20;;;9.90;67.70;;;;;;5039365;28;20459;-77
2022/04/18 02:10:58;;;;;;;1.60;1.40;;;9.80;67.90;;;;;;5033420;28;20467;-79
2022/04/18 02:13:28;;;;;;;1.47;1.10;;;9.80;68.00;;;;;;5037291;28;20897;-77
2022/04/18 02:15:57;;;;;;;1.47;1.10;;;9.70;68.00;;;;;;5026281;28;20487;-78
2022/04/18 02:18:24;;;;;;;1.43;1.10;;;9.70;68.20;;;;;;5038791;28;20467;-81
2022/04/18 02:20:51;;;;;;;1.50;1.20;;;9.70;68.40;;;;;;5035775;28;20477;-78
2022/04/18 02:23:18;;;;;;;1.40;1.00;;;9.70;68.50;;;;;;5035485;28;20478;-77
2022/04/18 02:25:45;;;;;;;1.50;1.17;;;9.70;68.50;;;;;;5039129;28;20527;-79
2022/04/18 02:28:14;;;;;;;1.43;1.20;;;9.70;68.50;;;;;;5042066;28;20459;-77
2022/04/18 02:30:41;;;;;;;1.50;1.20;;;9.60;68.70;;;;;;5037681;28;20541;-79
2022/04/18 02:33:07;;;;;;;1.40;1.10;;;9.60;69.00;;;;;;5041779;28;20890;-78
2022/04/18 02:35:36;;;;;;;1.50;1.20;;;9.60;68.70;;;;;;5036940;28;20587;-79
2022/04/18 02:38:02;;;;;;;1.50;1.20;;;9.60;68.90;;;;;;5039408;28;20486;-79
2022/04/18 02:40:29;;;;;;;1.70;1.60;;;9.60;69.10;;;;;;5037307;28;21114;-77
2022/04/18 02:42:57;;;;;;;1.47;1.13;;;9.50;69.20;;;;;;5039365;28;20971;-77
2022/04/18 02:45:27;;;;;;;1.50;1.20;;;9.50;69.40;;;;;;5036725;28;20469;-78
2022/04/18 02:47:54;;;;;;;1.50;1.10;;;9.50;69.60;;;;;;5038739;28;20482;-77
2022/04/18 02:50:21;;;;;;;1.43;1.10;;;9.40;69.70;;;;;;5035810;28;20456;-76
2022/04/18 02:52:49;;;;;;;1.40;1.10;;;9.40;70.00;;;;;;5037243;28;20531;-78
2022/04/18 02:55:16;;;;;;;1.43;1.10;;;9.40;70.20;;;;;;5036884;28;20549;-77
2022/04/18 02:57:42;;;;;;;1.43;1.10;;;9.30;70.20;;;;;;5037569;28;20482;-79
2022/04/18 03:00:11;;;;;;;1.43;1.20;;;9.30;70.50;;;;;;5037281;28;20875;-77
2022/04/18 03:02:40;;;;;;;1.50;1.10;;;9.30;70.80;;;;;;5040598;28;20482;-78
2022/04/18 03:05:09;;;;;;;1.47;1.20;;;9.30;71.40;;;;;;5036981;28;20505;-78
2022/04/18 03:07:36;;;;;;;1.50;1.20;;;9.20;71.30;;;;;;5042388;28;20473;-77
2022/04/18 03:10:04;;;;;;;1.50;1.20;;;9.20;71.30;;;;;;5036921;28;20470;-79
2022/04/18 03:12:31;;;;;;;1.40;1.10;;;9.10;71.60;;;;;;5038921;28;20459;-77
2022/04/18 03:14:59;;;;;;;1.50;1.20;;;9.10;71.30;;;;;;5034651;28;20479;-78
2022/04/18 03:17:26;;;;;;;1.47;1.10;;;9.10;71.60;;;;;;5044165;28;20498;-78
2022/04/18 03:19:55;;;;;;;1.43;1.20;;;9.00;71.70;;;;;;5035691;28;20459;-78
2022/04/18 03:22:21;;;;;;;1.50;1.30;;;9.00;71.40;;;;;;5035030;28;20582;-76
2022/04/18 03:24:49;;;;;;;1.50;1.20;;;9.00;71.60;;;;;;5035764;28;20582;-79
2022/04/18 03:27:16;;;;;;;1.47;1.23;;;9.00;71.90;;;;;;5038992;28;20479;-78
2022/04/18 03:29:43;;;;;;;1.50;1.30;;;8.90;71.50;;;;;;5036668;28;20490;-78
2022/04/18 03:32:10;;;;;;;3.10;2.90;;;8.90;71.80;;;;;;5036940;28;20456;-78
2022/04/18 03:34:37;;;;;;;1.47;1.20;;;8.80;72.10;;;;;;5037879;28;20479;-77
2022/04/18 03:39:51;;;;;;;1.50;1.30;;;8.80;72.70;;;;;;4992165;28;20517;-78
2022/04/18 03:42:28;;;;;;;1.47;1.17;;;8.80;72.50;;;;;;5042147;28;20459;-78
2022/04/18 03:44:56;;;;;;;1.47;1.20;;;8.70;72.80;;;;;;5037150;28;20837;-77
2022/04/18 03:47:24;;;;;;;1.40;1.20;;;8.70;72.60;;;;;;5036438;28;20467;-80
2022/04/18 03:49:51;;;;;;;1.47;1.20;;;8.70;73.20;;;;;;5035472;28;20551;-77
2022/04/18 03:52:19;;;;;;;1.43;1.10;;;8.70;73.30;;;;;;5030831;28;20463;-79
2022/04/18 03:54:47;;;;;;;1.47;1.20;;;8.70;73.60;;;;;;5033242;28;20475;-79
2022/04/18 03:57:14;;;;;;;1.50;1.30;;;8.70;73.80;;;;;;5032869;28;20459;-80
2022/04/18 03:59:41;;;;;;;1.50;1.20;;;8.60;73.70;;;;;;5029658;28;20979;-78
2022/04/18 04:02:09;;;;;;;1.50;1.20;;;8.60;74.10;;;;;;5032325;28;20466;-78
2022/04/18 04:04:37;;;;;;;1.43;1.13;;;8.60;74.40;;;;;;5030094;28;20526;-76
2022/04/18 04:07:05;;;;;;;1.50;1.23;;;8.60;74.70;;;;;;5033660;28;20465;-77
2022/04/18 04:09:34;;;;;;;1.50;1.20;;;8.50;74.80;;;;;;5029890;28;20464;-77
2022/04/18 04:12:03;;;;;;;1.50;1.30;;;8.50;75.00;;;;;;5036728;28;20463;-78
2022/04/18 04:14:31;;;;;;;1.50;1.20;;;8.50;74.90;;;;;;5032694;28;20487;-78
2022/04/18 04:16:58;;;;;;;1.47;1.20;;;8.40;74.50;;;;;;5038522;28;20486;-78
2022/04/18 04:19:25;;;;;;;1.70;1.60;;;8.40;74.80;;;;;;5032527;28;21095;-75
2022/04/18 04:21:52;;;;;;;1.40;1.17;;;8.40;74.90;;;;;;5036607;28;20471;-80
2022/04/18 04:24:20;;;;;;;1.43;1.20;;;8.40;75.40;;;;;;5033252;28;20475;-78
2022/04/18 04:26:48;;;;;;;1.50;1.30;;;8.30;75.50;;;;;;5038011;28;20459;-76
2022/04/18 04:29:16;;;;;;;2.47;2.27;;;8.30;75.90;;;;;;5041596;28;20463;-80
2022/04/18 04:31:44;;;;;;;1.43;1.17;;;8.30;75.60;;;;;;5042415;28;20521;-77
2022/04/18 04:34:12;;;;;;;1.50;1.20;;;8.30;75.60;;;;;;5038264;28;20475;-78
2022/04/18 04:36:40;;;;;;;1.47;1.20;;;8.30;75.00;;;;;;5038982;28;20454;-76
2022/04/18 04:39:08;;;;;;;1.47;1.20;;;8.30;75.10;;;;;;5040231;28;20463;-78
2022/04/18 04:41:36;;;;;;;1.50;1.30;;;8.30;75.00;;;;;;5041813;28;20489;-77
2022/04/18 04:44:05;;;;;;;1.50;1.23;;;8.40;74.90;;;;;;5043337;28;20533;-78
2022/04/18 04:46:32;;;;;;;1.50;1.20;;;8.40;74.90;;;;;;5046434;28;20980;-76
2022/04/18 04:48:59;;;;;;;1.47;1.20;;;8.40;74.90;;;;;;5042555;28;20467;-77
2022/04/18 04:51:26;;;;;;;1.43;1.20;;;8.40;75.10;;;;;;5038992;28;20471;-74
2022/04/18 04:53:53;;;;;;;1.50;1.20;;;8.50;75.30;;;;;;5036848;28;20490;-74
2022/04/18 04:56:23;;;;;;;1.40;1.10;;;8.50;75.30;;;;;;5038386;28;20538;-74
2022/04/18 04:58:50;;;;;;;1.47;1.10;;;8.50;75.30;;;;;;5035937;28;20574;-74
2022/04/18 05:01:19;;;;;;;1.43;1.20;;;8.50;75.00;;;;;;5032838;28;20698;-75
2022/04/18 05:03:47;;;;;;;1.50;1.30;;;8.60;74.90;;;;;;5035478;28;20487;-75
2022/04/18 05:06:14;;;;;;;1.47;1.20;;;8.60;74.80;;;;;;5037966;28;20946;-76
2022/04/18 05:08:41;;;;;;;1.50;1.20;;;8.60;74.90;;;;;;5034531;28;20463;-77
2022/04/18 05:11:08;;;;;;;1.47;1.20;;;8.60;74.50;;;;;;5036805;28;20478;-76
2022/04/18 05:13:34;;;;;;;1.40;1.20;;;8.60;74.70;;;;;;5037365;28;20490;-77
2022/04/18 05:16:01;;;;;;;1.40;1.20;;;8.60;74.40;;;;;;5040417;28;20466;-77
2022/04/18 05:18:29;;;;;;;1.47;1.20;;;8.60;74.80;;;;;;5040670;28;20463;-77
2022/04/18 05:20:57;;;;;;;1.43;1.20;;;8.70;74.80;;;;;;5025550;28;20462;-77
2022/04/18 05:23:24;;;;;;;1.40;1.10;;;8.70;74.70;;;;;;5038953;28;20491;-75
2022/04/18 05:25:51;;;;;;;1.47;1.20;;;8.70;74.40;;;;;;5038255;28;20489;-77
2022/04/18 05:28:19;;;;;;;1.47;1.30;;;8.80;74.40;;;;;;5032671;28;20471;-75
2022/04/18 05:30:46;;;;;;;1.47;1.10;;;8.80;74.20;;;;;;5035488;28;20467;-76
2022/04/18 05:33:14;;;;;;;1.47;1.10;;;8.90;74.30;;;;;;5038842;28;20664;-76
2022/04/18 05:35:42;;;;;;;1.40;1.10;;;9.00;74.30;;;;;;5038207;28;20459;-77
2022/04/18 05:38:09;;;;;;;1.50;1.20;;;9.10;74.40;;;;;;5036818;28;20470;-77
2022/04/18 05:40:35;;;;;;;1.50;1.30;;;9.20;74.10;;;;;;5035217;28;20468;-75
2022/04/18 05:43:03;;;;;;;1.50;1.20;;;9.40;74.00;;;;;;5027098;28;20491;-77
2022/04/18 05:45:30;;;;;;;1.50;1.20;;;9.50;73.60;;;;;;5033333;28;20489;-77
2022/04/18 05:47:57;;;;;;;1.47;1.10;;;9.70;73.30;;;;;;5039336;28;20463;-77
2022/04/18 05:50:23;;;;;;;1.50;1.23;;;9.90;72.80;;;;;;5031080;28;20467;-77
2022/04/18 05:52:51;;;;;;;1.43;1.10;;;10.00;72.70;;;;;;5035926;28;20467;-76
2022/04/18 05:55:18;;;;;;;1.47;1.10;;;10.20;72.40;;;;;;5037242;28;20462;-77
2022/04/18 05:57:45;;;;;;;1.43;1.10;;;10.50;72.10;;;;;;5037381;28;20459;-77
2022/04/18 06:00:13;;;;;;;1.50;1.10;;;10.70;71.40;;;;;;5035809;28;20474;-76
2022/04/18 06:02:39;;;;;;;1.43;1.10;;;10.90;70.90;;;;;;5023540;28;20487;-77
2022/04/18 06:05:07;;;;;;;2.60;2.33;;;11.10;70.50;;;;;;5035576;28;20554;-76
2022/04/18 06:07:34;;;;;;;1.43;1.00;;;11.20;69.50;;;;;;5039666;28;20479;-77
2022/04/18 06:10:02;;;;;;;1.43;1.10;;;11.30;69.30;;;;;;5036311;28;20497;-77
2022/04/18 06:12:29;;;;;;;1.50;1.27;;;11.40;69.10;;;;;;5039139;28;20459;-76
2022/04/18 06:14:56;;;;;;;1.43;1.10;;;11.50;69.20;;;;;;5035876;28;20490;-77
2022/04/18 06:17:22;;;;;;;1.50;1.10;;;11.70;68.80;;;;;;5039973;28;20462;-77
2022/04/18 06:19:49;;;;;;;1.43;1.00;;;11.80;68.90;;;;;;5036137;28;20456;-76
2022/04/18 06:22:17;;;;;;;1.47;1.10;;;11.90;68.30;;;;;;5034977;28;20459;-77
2022/04/18 06:24:44;;;;;;;1.50;1.10;;;12.00;68.10;;;;;;5037191;28;20495;-77
2022/04/18 06:27:12;;;;;;;1.43;1.10;;;12.10;68.10;;;;;;5039413;28;20483;-77
2022/04/18 06:29:39;;;;;;;1.43;1.10;;;12.10;68.10;;;;;;5037041;28;20474;-77
2022/04/18 06:32:07;;;;;;;1.43;1.00;;;12.20;67.70;;;;;;5038869;28;20495;-77
2022/04/18 06:34:33;;;;;;;1.47;1.00;;;12.30;67.90;;;;;;5035679;28;20494;-77
2022/04/18 06:37:08;;;;;;;1.50;1.00;;;12.40;67.80;;;;;;5036660;28;20487;-77
2022/04/18 06:39:36;;;;;;;1.43;1.00;;;12.60;67.40;;;;;;5036182;28;20467;-77
2022/04/18 06:42:03;;;;;;;1.43;1.00;;;12.80;67.30;;;;;;5035572;28;20463;-77
2022/04/18 06:44:31;;;;;;;1.50;1.10;;;12.90;66.80;;;;;;5036085;28;20487;-76
2022/04/18 06:46:58;;;;;;;1.43;1.00;;;13.00;66.80;;;;;;5036679;28;20502;-77
2022/04/18 06:49:25;;;;;;;1.93;1.73;;;13.10;66.40;;;;;;5036110;28;20471;-77
2022/04/18 06:51:52;;;;;;;1.43;1.00;;;13.30;66.50;;;;;;5034217;28;20462;-77
2022/04/18 06:54:19;;;;;;;2.63;2.43;;;13.30;66.20;;;;;;5034933;28;20489;-77
2022/04/18 06:57:01;;;;;;;1.50;1.03;;;13.30;66.50;;;;;;5042174;28;20458;-77
2022/04/18 06:59:28;;;;;;;1.40;1.07;;;13.50;66.20;;;;;;5034515;28;20463;-76
2022/04/18 07:01:58;;;;;;;1.43;1.00;;;13.70;65.70;;;;;;5033612;28;20459;-78
2022/04/18 07:04:25;;;;;;;1.50;1.10;;;13.70;65.50;;;;;;5058309;22;20575;-74
2022/04/18 07:06:52;;;;;;;1.40;1.00;;;13.90;65.40;;;;;;5044318;28;20482;-75
2022/04/18 07:09:19;;;;;;;1.50;1.10;;;13.90;65.20;;;;;;5038183;28;20466;-74
2022/04/18 07:11:46;;;;;;;1.50;1.10;;;14.10;64.40;;;;;;5045451;28;20466;-74
2022/04/18 07:14:13;;;;;;;1.50;1.00;;;14.10;64.30;;;;;;5043481;28;20490;-74
2022/04/18 07:16:40;;;;;;;1.43;1.00;;;14.30;63.90;;;;;;5047538;28;20459;-74
2022/04/18 07:19:08;;;;;;;2.60;1.67;;;14.30;63.60;;;;;;5047726;28;20466;-74
2022/04/18 07:21:35;;;;;;;1.50;1.00;;;14.30;63.50;;;;;;5039087;28;20546;-74
2022/04/18 07:24:02;;;;;;;1.43;1.00;;;14.10;63.70;;;;;;5035253;28;20482;-75
2022/04/18 07:26:29;;;;;;;1.40;0.90;;;14.20;64.40;;;;;;5044990;28;20478;-75
2022/04/18 07:28:56;;;;;;;1.40;0.93;;;14.40;64.40;;;;;;5045077;28;20470;-75
2022/04/18 07:31:22;;;;;;;1.40;0.90;;;14.50;63.80;;;;;;5033564;28;20608;-75
2022/04/18 07:33:49;;;;;;;1.40;0.90;;;14.60;63.40;;;;;;5042449;28;20482;-74
2022/04/18 07:36:18;;;;;;;1.47;1.00;;;14.60;63.10;;;;;;5046866;28;20780;-75
2022/04/18 07:38:51;;;;;;;1.50;0.90;;;14.60;63.40;;;;;;5051198;28;20470;-76
2022/04/18 07:41:19;;;;;;;1.40;1.00;;;14.80;63.30;;;;;;5045387;28;20463;-75
2022/04/18 07:43:47;;;;;;;1.40;0.97;;;15.00;63.40;;;;;;5045672;28;20950;-75
2022/04/18 07:46:15;;;;;;;1.43;1.00;;;15.10;62.60;;;;;;5048572;28;20929;-75
2022/04/18 07:48:43;;;;;;;1.50;1.20;;;15.20;62.40;;;;;;5048614;28;20852;-76
2022/04/18 07:53:56;;;;;;;1.47;1.00;;;15.40;62.30;;;;;;5048865;28;20445;-75
2022/04/18 07:56:23;;;;;;;1.50;1.00;;;15.40;61.80;;;;;;5044670;28;20827;-76
2022/04/18 07:58:51;;;;;;;1.50;1.20;;;15.60;62.60;;;;;;5046567;28;20523;-76
2022/04/18 08:01:18;;;;;;;1.43;1.00;;;15.90;62.10;;;;;;5044362;28;20474;-76
2022/04/18 08:03:45;;;;;;;1.47;1.00;;;16.10;61.30;;;;;;5048477;28;20502;-76
2022/04/18 08:06:12;;;;;;;1.43;1.00;;;16.20;61.50;;;;;;5048713;28;20493;-75
2022/04/18 08:08:40;;;;;;;1.47;0.90;;;16.40;61.80;;;;;;5050836;28;20927;-75
2022/04/18 08:11:11;;;;;;;1.47;0.90;;;16.60;61.20;;;;;;5046370;28;20579;-75
2022/04/18 08:13:40;;;;;;;1.43;1.00;;;16.70;60.70;;;;;;5050335;28;20519;-75
2022/04/18 08:16:08;;;;;;;1.50;0.90;;;16.90;60.40;;;;;;5050691;28;20481;-75
2022/04/18 08:18:36;;;;;;;1.47;0.90;;;17.00;60.20;;;;;;5049991;28;20524;-76
2022/04/18 08:21:03;;;;;;;1.50;1.20;;;17.20;60.10;;;;;;5047805;28;20547;-75
2022/04/18 08:23:30;;;;;;;1.40;0.90;;;17.20;59.70;;;;;;5050364;28;20469;-75
2022/04/18 08:25:57;;;;;;;1.43;0.90;;;17.30;60.00;;;;;;5048803;28;20487;-75
2022/04/18 08:28:26;;;;;;;1.40;0.93;;;17.30;59.80;;;;;;5049096;28;20467;-75
2022/04/18 08:30:53;;;;;;;1.40;0.93;;;17.10;59.30;;;;;;5043730;28;20458;-77
2022/04/18 08:33:20;;;;;;;1.43;1.00;;;16.90;59.50;;;;;;5046989;28;20481;-76
2022/04/18 08:35:48;;;;;;;1.47;0.90;;;17.10;60.50;;;;;;5047599;28;20478;-76
2022/04/18 08:38:15;;;;;;;1.47;0.90;;;17.20;59.00;;;;;;5046135;28;20991;-74
2022/04/18 08:40:43;;;;;;;1.40;0.90;;;17.10;59.60;;;;;;5047086;28;20457;-76
2022/04/18 08:43:10;;;;;;;1.43;0.90;;;17.10;60.10;;;;;;5017892;28;20482;-76
2022/04/18 08:45:39;;;;;;;1.40;0.90;;;17.10;59.60;;;;;;5045367;28;20490;-75
2022/04/18 08:53:38;;;;;;;1.43;0.90;;;17.40;59.70;;;;;;5044010;28;20828;-75
2022/04/18 08:56:13;;;;;;;1.47;1.10;;;17.40;60.00;;;;;;5042117;28;20514;-76
2022/04/18 08:58:42;;;;;;;1.47;0.90;;;17.60;59.50;;;;;;5042937;28;20502;-75
2022/04/18 09:01:11;;;;;;;1.50;1.10;;;17.60;58.90;;;;;;5043105;28;20515;-75
2022/04/18 09:03:39;;;;;;;1.40;0.90;;;17.80;58.20;;;;;;5041040;28;20466;-76
2022/04/18 09:06:08;;;;;;;1.43;0.90;;;17.90;58.70;;;;;;5040798;28;20495;-74
2022/04/18 09:08:36;;;;;;;1.40;0.90;;;18.10;58.50;;;;;;5044094;28;20920;-75
2022/04/18 09:11:06;;;;;;;1.50;1.00;;;18.10;57.70;;;;;;5046704;28;20480;-74
2022/04/18 09:13:43;;;;;;;1.43;0.90;;;18.30;57.60;;;;;;5048240;28;20557;-75
2022/04/18 09:16:17;;;;;;;1.50;0.90;;;18.40;57.90;;;;;;5043625;28;20466;-75
2022/04/18 09:18:44;;;;;;;1.43;0.90;;;18.50;57.90;;;;;;5046841;28;20536;-75
2022/04/18 09:21:11;;;;;;;1.50;0.90;;;18.50;58.50;;;;;;5041614;28;20462;-76
2022/04/18 09:23:40;;;;;;;1.47;0.90;;;18.70;57.60;;;;;;5046483;28;20489;-75
2022/04/18 09:26:09;;;;;;;1.40;0.90;;;18.80;57.60;;;;;;5052506;28;20486;-76
2022/04/18 09:28:37;;;;;;;1.40;0.90;;;18.90;56.40;;;;;;5049918;28;20458;-75
2022/04/18 09:31:09;;;;;;;1.90;1.50;;;19.00;56.00;;;;;;5054124;28;20462;-76
2022/04/18 09:33:44;;;;;;;1.47;0.90;;;19.10;56.00;;;;;;5053870;28;20712;-75
2022/04/18 09:36:17;;;;;;;1.47;0.90;;;19.20;55.20;;;;;;5048160;28;20476;-76
2022/04/18 09:38:46;;;;;;;1.40;0.90;;;19.30;55.70;;;;;;5044147;28;20560;-75
2022/04/18 09:41:14;;;;;;;1.47;0.90;;;19.40;56.30;;;;;;5048313;28;20466;-75
2022/04/18 09:43:44;;;;;;;1.50;1.00;;;19.50;56.30;;;;;;5049432;28;20494;-75
2022/04/18 09:46:12;;;;;;;1.50;1.00;;;19.90;56.40;;;;;;5049178;28;20469;-76
2022/04/18 09:48:41;;;;;;;1.47;0.90;;;20.10;52.90;;;;;;5048426;28;20874;-76
2022/04/18 09:51:13;;;;;;;1.47;0.90;;;20.20;52.70;;;;;;5044520;28;20529;-75
2022/04/18 09:53:43;;;;;;;1.40;0.90;;;20.30;54.80;;;;;;5047718;28;20489;-76
2022/04/18 09:56:15;;;;;;;1.47;0.90;;;20.40;53.40;;;;;;5048091;28;20561;-76
2022/04/18 09:58:42;;;;;;;1.40;0.90;;;20.50;54.10;;;;;;5049567;28;20466;-75
2022/04/18 10:01:09;;;;;;;1.50;1.00;;;20.50;52.50;;;;;;5049116;28;20797;-77
2022/04/18 10:03:37;;;;;;;1.50;1.00;;;20.40;54.20;;;;;;5046531;28;20458;-76
2022/04/18 10:06:07;;;;;;;1.47;0.90;;;20.30;54.20;;;;;;5050720;28;20496;-75
2022/04/18 10:08:34;;;;;;;1.47;0.90;;;20.30;53.70;;;;;;5047717;28;20462;-75
2022/04/18 10:11:03;;;;;;;1.47;0.90;;;20.50;53.30;;;;;;5048749;28;20470;-76
2022/04/18 10:13:31;;;;;;;1.47;0.90;;;20.70;53.10;;;;;;5049605;28;20570;-76
2022/04/18 10:15:59;;;;;;;1.43;0.90;;;21.00;53.30;;;;;;5046061;28;20490;-76
2022/04/18 10:18:27;;;;;;;1.50;0.90;;;21.30;52.40;;;;;;5049884;28;21053;-75
2022/04/18 10:21:13;;;;;;;1.43;0.90;;;21.40;49.20;;;;;;5045103;28;20462;-74
2022/04/18 10:24:18;;;;;;;1.43;0.90;;;21.30;49.60;;;;;;5048764;28;20832;-75
2022/04/18 10:27:26;;;;;;;1.50;0.90;;;21.30;49.90;;;;;;5026274;28;20543;-75
2022/04/18 10:29:55;;;;;;;1.40;0.90;;;21.50;49.80;;;;;;5043950;28;20782;-76
2022/04/18 10:32:26;;;;;;;1.47;0.87;;;21.70;49.40;;;;;;5050587;28;20459;-75
2022/04/18 10:34:57;;;;;;;1.43;0.90;;;21.60;47.60;;;;;;5050159;28;20512;-73
2022/04/18 10:37:26;;;;;;;1.50;0.90;;;21.40;46.60;;;;;;5045222;28;20554;-75
2022/04/18 10:39:58;;;;;;;1.43;0.90;;;21.40;49.60;;;;;;5039982;28;20549;-75
2022/04/18 10:42:29;;;;;;;1.43;0.90;;;21.60;50.90;;;;;;5041930;28;20985;-77
2022/04/18 10:45:15;;;;;;;1.40;0.90;;;21.90;50.90;;;;;;5047092;28;20475;-74
2022/04/18 10:48:01;;;;;;;1.50;0.90;;;22.40;49.70;;;;;;5045259;28;20496;-75
2022/04/18 10:50:33;;;;;;;1.50;0.90;;;22.50;47.40;;;;;;5042249;28;20850;-75
2022/04/18 10:53:09;;;;;;;1.50;0.90;;;22.30;47.70;;;;;;5048645;28;20458;-76
2022/04/18 10:55:37;;;;;;;1.50;1.00;;;22.10;46.70;;;;;;5048903;28;20582;-75
2022/04/18 10:58:13;;;;;;;1.40;0.90;;;21.90;47.10;;;;;;5041754;28;20955;-76
2022/04/18 11:00:51;;;;;;;1.40;0.90;;;21.90;48.10;;;;;;5050377;28;20877;-75
2022/04/18 11:03:58;;;;;;;1.40;0.90;;;21.90;48.80;;;;;;5047308;28;20493;-75
2022/04/18 11:06:53;;;;;;;1.40;0.90;;;22.10;48.40;;;;;;5035708;28;20898;-74
2022/04/18 11:09:23;;;;;;;1.40;0.90;;;22.40;48.00;;;;;;5043386;28;20489;-76
2022/04/18 11:12:06;;;;;;;1.40;0.80;;;22.50;47.00;;;;;;5043125;28;20614;-74
2022/04/18 11:14:47;;;;;;;1.50;1.03;;;22.60;47.30;;;;;;5043995;28;20514;-76
2022/04/18 11:17:27;;;;;;;1.47;1.00;;;22.80;47.20;;;;;;5047754;28;20477;-76
2022/04/18 11:19:54;;;;;;;1.43;0.90;;;22.90;47.40;;;;;;5045389;28;20553;-77
2022/04/18 11:22:22;;;;;;;1.40;0.83;;;22.70;46.30;;;;;;5042441;28;21122;-76
2022/04/18 11:25:00;;;;;;;1.40;0.90;;;22.40;47.50;;;;;;5045969;28;20483;-74
2022/04/18 11:27:37;;;;;;;1.40;0.90;;;22.40;47.10;;;;;;5041155;28;20486;-75
2022/04/18 11:30:11;;;;;;;1.40;0.90;;;22.40;48.20;;;;;;5045460;28;20484;-75
2022/04/18 11:32:40;;;;;;;1.47;0.90;;;22.60;49.70;;;;;;5045084;28;21071;-76
2022/04/18 11:35:09;;;;;;;1.47;0.80;;;22.70;47.70;;;;;;5042457;28;20998;-76
2022/04/18 11:37:39;;;;;;;1.50;1.00;;;22.60;47.00;;;;;;5037916;28;20549;-76
2022/04/18 11:40:10;;;;;;;1.50;0.80;;;22.80;49.10;;;;;;5041757;28;20462;-74
2022/04/18 11:42:39;;;;;;;1.40;0.90;;;23.10;47.70;;;;;;5042448;28;20466;-76
2022/04/18 11:45:08;;;;;;;1.50;1.07;;;23.40;47.40;;;;;;5042678;28;20490;-75
2022/04/18 11:47:38;;;;;;;1.40;0.90;;;23.40;46.90;;;;;;5037172;28;20474;-76
2022/04/18 11:50:07;;;;;;;1.47;0.90;;;23.60;47.20;;;;;;5037434;28;20956;-75
2022/04/18 11:52:35;;;;;;;1.40;0.90;;;23.80;48.40;;;;;;5039661;28;20462;-75
2022/04/18 11:55:05;;;;;;;1.43;0.90;;;23.80;46.00;;;;;;5041056;28;20478;-76
2022/04/18 11:57:36;;;;;;;1.40;0.90;;;23.80;46.20;;;;;;5043508;28;20473;-76
2022/04/18 12:00:06;;;;;;;1.40;0.90;;;23.90;48.50;;;;;;5041742;28;20825;-75
2022/04/18 12:08:04;;;;;;;1.40;0.90;;;24.40;46.00;;;;;;5044061;28;21047;-75
2022/04/18 12:10:36;;;;;;;1.50;1.10;;;24.10;45.90;;;;;;5042266;28;20536;-75
2022/04/18 12:13:07;;;;;;;1.43;0.90;;;24.30;47.70;;;;;;5041345;28;21210;-75
2022/04/18 12:15:35;;;;;;;1.47;0.80;;;24.20;44.80;;;;;;5040537;28;20484;-77
2022/04/18 12:18:11;;;;;;;1.40;0.80;;;24.30;45.80;;;;;;5042394;28;21001;-74
2022/04/18 12:20:41;;;;;;;1.40;0.90;;;24.30;45.10;;;;;;5041018;28;20468;-76
2022/04/18 12:23:10;;;;;;;1.40;0.80;;;24.00;45.40;;;;;;5043066;28;20524;-76
2022/04/18 12:25:43;;;;;;;1.40;0.90;;;24.10;46.30;;;;;;5043643;28;21055;-76
2022/04/18 12:28:15;;;;;;;1.43;0.90;;;24.40;46.80;;;;;;5043712;28;20485;-74
2022/04/18 12:30:45;;;;;;;1.43;0.90;;;24.50;45.90;;;;;;5040343;28;20466;-76
2022/04/18 12:33:14;;;;;;;1.40;0.90;;;24.40;45.00;;;;;;5043324;28;20559;-76
2022/04/18 12:35:46;;;;;;;1.43;0.90;;;24.30;46.10;;;;;;5044930;28;20903;-76
2022/04/18 12:38:14;;;;;;;1.43;0.80;;;24.00;45.90;;;;;;5041646;28;20493;-76
2022/04/18 12:40:43;;;;;;;1.47;0.80;;;24.20;48.20;;;;;;5041969;28;20466;-76
2022/04/18 12:43:14;;;;;;;1.40;0.90;;;24.70;47.60;;;;;;5044618;28;20462;-77
2022/04/18 12:45:49;;;;;;;1.40;0.80;;;25.10;46.60;;;;;;5045021;28;20481;-76
2022/04/18 12:48:21;;;;;;;1.40;0.80;;;25.30;45.40;;;;;;5044054;28;20485;-76
2022/04/18 12:50:48;;;;;;;1.40;0.80;;;25.00;44.50;;;;;;5034658;28;20470;-76
2022/04/18 12:53:15;;;;;;;1.60;1.23;;;24.50;44.30;;;;;;5045348;28;20512;-77
2022/04/18 12:55:42;;;;;;;1.50;1.00;;;24.30;45.20;;;;;;5043230;28;20568;-76
2022/04/18 12:58:21;;;;;;;1.43;0.93;;;24.50;46.60;;;;;;5041664;28;20891;-77
2022/04/18 13:00:50;;;;;;;1.43;0.90;;;24.50;44.80;;;;;;5041612;28;20461;-77
2022/04/18 13:03:20;;;;;;;1.40;0.90;;;24.50;45.30;;;;;;5053993;28;20467;-75
2022/04/18 13:05:49;;;;;;;1.40;0.90;;;24.40;45.10;;;;;;5045884;28;20497;-76
2022/04/18 13:08:17;;;;;;;1.50;1.00;;;24.30;44.40;;;;;;5042235;28;20500;-76
2022/04/18 13:10:45;;;;;;;1.40;0.80;;;24.40;46.00;;;;;;5048084;28;20474;-75
2022/04/18 13:13:14;;;;;;;1.93;1.60;;;24.50;45.70;;;;;;5045800;28;20949;-76
2022/04/18 13:15:45;;;;;;;1.40;0.80;;;24.40;44.80;;;;;;5046563;28;20481;-75
2022/04/18 13:18:13;;;;;;;1.40;0.80;;;24.30;45.20;;;;;;5045440;28;20462;-76